createdAt,value
2022-09-06T00:05:45.873Z,55.40
2022-09-06T00:17:14.935Z,56.44
2022-09-06T00:28:29.292Z,57.70
2022-09-06T01:14:01.629Z,60.01
2022-09-06T01:25:23.164Z,59.94
2022-09-06T01:37:08.944Z,61.12
2022-09-06T01:48:38.881Z,62.16
2022-09-06T02:00:03.134Z,62.36
2022-09-06T02:11:19.075Z,62.88
2022-09-06T02:22:37.928Z,62.59
2022-09-06T02:33:59.595Z,62.25
2022-09-06T03:42:13.106Z,63.00
2022-09-06T03:53:34.932Z,63.07
2022-09-06T04:04:59.137Z,63.63
2022-09-06T04:16:22.324Z,63.38
2022-09-06T04:28:02.923Z,63.56
2022-09-06T04:39:27.138Z,63.92
2022-09-06T05:46:38.918Z,61.04
2022-09-06T05:57:36.696Z,56.90
2022-09-06T06:09:00.355Z,55.38
2022-09-06T06:19:26.914Z,54.27
2022-09-06T06:30:04.049Z,53.24
2022-09-06T06:41:02.133Z,52.44
2022-09-06T06:51:39.610Z,50.92
2022-09-06T07:01:58.477Z,49.92
2022-09-06T07:12:24.559Z,49.04
2022-09-06T07:33:28.089Z,45.84
2022-09-06T07:44:18.706Z,44.76
2022-09-06T07:55:03.112Z,43.79
2022-09-06T08:16:03.451Z,43.13
2022-09-06T08:26:09.460Z,42.75
2022-09-06T08:36:14.265Z,42.19
2022-09-06T08:46:46.881Z,42.09
2022-09-06T08:57:33.026Z,40.97
2022-09-06T09:08:45.018Z,40.79
2022-09-06T09:18:52.667Z,40.17
2022-09-06T09:29:32.099Z,40.28
2022-09-06T09:39:44.466Z,39.78
2022-09-06T09:50:02.586Z,39.21
2022-09-06T10:00:58.551Z,39.28
2022-09-06T10:11:43.692Z,38.86
2022-09-06T10:22:02.129Z,38.94
2022-09-06T10:32:43.978Z,38.66
2022-09-06T10:42:52.911Z,38.57
2022-09-06T10:53:05.276Z,38.48
2022-09-06T11:14:04.984Z,37.79
2022-09-06T11:24:47.091Z,37.80
2022-09-06T11:35:08.207Z,37.67
2022-09-06T11:45:21.555Z,36.64
2022-09-06T11:55:48.488Z,36.28
2022-09-06T12:06:25.567Z,36.29
2022-09-06T12:17:17.365Z,36.40
2022-09-06T12:27:27.010Z,36.10
2022-09-06T12:37:49.444Z,35.28
2022-09-06T12:48:05.955Z,34.65
2022-09-06T12:58:12.629Z,34.85
2022-09-06T13:08:51.631Z,34.96
2022-09-06T13:19:11.938Z,34.70
2022-09-06T13:29:22.602Z,34.52
2022-09-06T13:39:51.935Z,34.75
2022-09-06T13:49:58.519Z,34.50
2022-09-06T14:00:05.425Z,33.42
2022-09-06T14:10:09.267Z,33.74
2022-09-06T14:20:15.384Z,33.05
2022-09-06T14:30:18.772Z,33.08
2022-09-06T14:40:28.394Z,32.94
2022-09-06T14:50:44.349Z,33.24
2022-09-06T15:00:50.341Z,33.04
2022-09-06T15:10:55.804Z,32.97
2022-09-06T15:20:59.414Z,33.12
2022-09-06T15:31:16.384Z,33.01
2022-09-06T15:41:25.398Z,34.06
2022-09-06T15:51:29.498Z,34.08
2022-09-06T16:01:55.898Z,34.74
2022-09-06T16:11:59.353Z,34.86
2022-09-06T16:22:02.945Z,34.95
2022-09-06T16:32:10.098Z,35.45
2022-09-06T16:42:13.893Z,37.04
2022-09-06T16:52:53.460Z,38.49
2022-09-06T17:03:06.917Z,39.99
2022-09-06T17:14:01.320Z,40.77
2022-09-06T17:24:16.785Z,42.43
2022-09-06T17:34:44.838Z,43.59
2022-09-06T17:45:50.844Z,45.05
2022-09-06T17:56:16.901Z,46.25
2022-09-06T18:18:04.805Z,48.25
2022-09-06T18:29:02.330Z,48.50
2022-09-06T18:39:43.136Z,49.22
2022-09-06T18:50:29.963Z,49.52
2022-09-06T19:01:21.609Z,49.02
2022-09-06T19:12:04.924Z,49.90
2022-09-06T19:23:12.018Z,50.14
2022-09-06T19:34:36.128Z,51.12
2022-09-06T19:45:09.912Z,51.88
2022-09-06T19:56:12.681Z,52.82
2022-09-06T20:07:28.582Z,53.28
2022-09-06T20:18:52.488Z,54.04
2022-09-06T20:30:17.541Z,55.29
2022-09-06T20:41:32.257Z,55.62
2022-09-06T20:52:46.004Z,56.43
2022-09-06T21:04:09.015Z,57.03
2022-09-06T21:15:34.016Z,58.21
2022-09-06T21:26:29.262Z,58.95
2022-09-06T21:37:47.689Z,58.81
2022-09-06T21:49:01.882Z,58.31
2022-09-06T22:00:19.632Z,58.69
2022-09-06T22:11:13.791Z,58.79
2022-09-06T22:22:28.130Z,58.92
2022-09-06T22:33:51.203Z,59.07
2022-09-06T22:56:38.228Z,59.01
2022-09-06T23:08:02.502Z,58.98
2022-09-06T23:19:58.406Z,59.88
2022-09-06T23:31:12.914Z,60.33
